CUF weather

Cuneo International Airport
Cuneo, Piedmont, Italy

Public forecast

Using degrees Celsius for public forecast. Weather courtesy of forecast.io.

METAR (pilot weather report)

Report is more than 6 hours old.

Retrieved 2019/05/23 18:50 UTC (8 hours ago):

LIMZ 231850Z 13005KT CAVOK 19/15 Q1013

TAF (pilot weather forecast)

Forecast is more than 6 hours old.

Retrieved 2019/05/23 18:21 UTC (8 hours ago):

TAF LIMZ 231700Z 2318/2418 VRB05KT 9999 SCT040 PROB40 TEMPO 2403/2408 TSRA PROB40 TEMPO 2414/2418 TSRA